Time;durP1;ratioP1;P1;durP2;ratioP2;P2;SDS_P1;SDS_P2;PMS_P1;PMS_P2;Temp;Humidity;BMP_temperature;BMP_pressure;BME280_temperature;BME280_humidity;BME280_pressure;Samples;Min_cycle;Max_cycle;Signal;HPM_P1;HPM_P2
2022/09/20 00:02:12;;;;;;;6.77;2.30;;;;;;;;;;4975606;28;20251;-77
2022/09/20 00:04:38;;;;;;;7.87;2.37;;;;;;;;;;4976261;28;20640;-77
2022/09/20 00:07:05;;;;;;;6.60;2.20;;;;;;;;;;4958967;28;20225;-76
2022/09/20 00:09:31;;;;;;;6.60;2.60;;;;;;;;;;4974315;28;20750;-77
2022/09/20 00:11:59;;;;;;;12.03;2.67;;;;;;;;;;4991235;28;21027;-76
2022/09/20 00:14:27;;;;;;;6.83;2.50;;;;;;;;;;4978872;28;20367;-77
2022/09/20 00:16:57;;;;;;;9.00;2.53;;;;;;;;;;4991561;28;20707;-77
2022/09/20 00:19:26;;;;;;;6.07;2.43;;;;;;;;;;4976481;28;20299;-77
2022/09/20 00:21:55;;;;;;;7.37;3.10;;;;;;;;;;4978240;28;20222;-76
2022/09/20 00:24:22;;;;;;;5.93;2.57;;;;;;;;;;4958915;28;20224;-76
2022/09/20 00:26:50;;;;;;;6.27;2.53;;;;;;;;;;4992339;28;20252;-76
2022/09/20 00:29:18;;;;;;;8.70;2.70;;;;;;;;;;4961494;28;20210;-76
2022/09/20 00:31:46;;;;;;;5.67;2.37;;;;;;;;;;4977204;28;20235;-76
2022/09/20 00:37:00;;;;;;;6.67;2.80;;;;;;;;;;4978786;28;20243;-77
2022/09/20 00:39:30;;;;;;;7.00;2.40;;;;;;;;;;4961449;28;20221;-76
2022/09/20 00:41:58;;;;;;;8.10;2.70;;;;;;;;;;4960724;28;20294;-77
2022/09/20 00:44:41;;;;;;;6.53;2.33;;;;;;;;;;4975867;28;20305;-77
2022/09/20 00:47:26;;;;;;;4.57;2.23;;;;;;;;;;4969234;28;20657;-76
2022/09/20 00:49:55;;;;;;;7.50;2.50;;;;;;;;;;4989631;28;20229;-77
2022/09/20 00:52:23;;;;;;;5.13;2.20;;;;;;;;;;4972336;28;20229;-77
2022/09/20 00:54:48;;;;;;;8.63;2.70;;;;;;;;;;4958710;28;20719;-77
2022/09/20 00:57:14;;;;;;;8.97;2.63;;;;;;;;;;4958562;28;20233;-77
2022/09/20 00:59:48;;;;;;;6.63;2.63;;;;;;;;;;4974516;28;20236;-77
2022/09/20 01:02:31;;;;;;;5.30;2.80;;;;;;;;;;4958165;28;20233;-77
2022/09/20 01:04:57;;;;;;;7.30;2.43;;;;;;;;;;4974108;28;20213;-77
2022/09/20 01:07:25;;;;;;;7.23;2.23;;;;;;;;;;4960048;28;20774;-77
2022/09/20 01:09:50;;;;;;;4.07;2.07;;;;;;;;;;4960656;28;20722;-77
2022/09/20 01:12:21;;;;;;;5.63;2.27;;;;;;;;;;4959824;28;20225;-77
2022/09/20 01:14:49;;;;;;;5.53;2.47;;;;;;;;;;4981743;28;20239;-77
2022/09/20 01:17:22;;;;;;;6.37;2.10;;;;;;;;;;4977972;28;20804;-77
2022/09/20 01:20:11;;;;;;;6.10;2.57;;;;;;;;;;4941730;28;20232;-77
2022/09/20 01:22:55;;;;;;;4.47;2.33;;;;;;;;;;4973524;28;20218;-76
2022/09/20 01:25:23;;;;;;;4.93;2.43;;;;;;;;;;4990952;28;20304;-77
2022/09/20 01:27:52;;;;;;;10.37;2.60;;;;;;;;;;4960654;28;20325;-76
2022/09/20 01:30:29;;;;;;;8.90;2.43;;;;;;;;;;4981718;28;20214;-77
2022/09/20 01:33:10;;;;;;;6.17;2.60;;;;;;;;;;4949887;28;20308;-76
2022/09/20 01:35:36;;;;;;;7.07;2.50;;;;;;;;;;4977306;28;20236;-77
2022/09/20 01:38:21;;;;;;;6.93;3.40;;;;;;;;;;4958153;28;20221;-77
2022/09/20 01:41:10;;;;;;;6.03;3.00;;;;;;;;;;4973476;28;20755;-76
2022/09/20 01:44:19;;;;;;;7.10;3.87;;;;;;;;;;4991504;28;20221;-76
2022/09/20 01:46:50;;;;;;;10.43;5.70;;;;;;;;;;4942948;28;20318;-77
2022/09/20 01:49:36;;;;;;;9.40;6.17;;;;;;;;;;4959070;28;20221;-77
2022/09/20 01:52:06;;;;;;;11.07;7.80;;;;;;;;;;4976163;28;20312;-76
2022/09/20 01:54:34;;;;;;;13.17;8.47;;;;;;;;;;4986995;28;20237;-77
2022/09/20 01:57:29;;;;;;;12.00;8.63;;;;;;;;;;4974152;28;20489;-77
2022/09/20 02:00:45;;;;;;;10.97;9.03;;;;;;;;;;4952964;28;20237;-76
2022/09/20 02:03:22;;;;;;;16.47;9.63;;;;;;;;;;4922928;28;20243;-77
2022/09/20 02:06:06;;;;;;;15.13;9.97;;;;;;;;;;4972819;28;20715;-77
2022/09/20 02:08:49;;;;;;;14.67;10.13;;;;;;;;;;4958361;28;20687;-77
2022/09/20 02:11:18;;;;;;;14.37;10.63;;;;;;;;;;4976747;28;20283;-76
2022/09/20 02:14:25;;;;;;;14.50;10.17;;;;;;;;;;4972720;28;20233;-77
2022/09/20 02:16:58;;;;;;;16.10;11.13;;;;;;;;;;4952648;28;20236;-77
2022/09/20 02:19:45;;;;;;;16.47;11.47;;;;;;;;;;4953767;28;20279;-77
2022/09/20 02:22:25;;;;;;;16.93;11.37;;;;;;;;;;4989181;28;20229;-77
2022/09/20 02:25:17;;;;;;;17.70;11.00;;;;;;;;;;4991616;28;20232;-77
2022/09/20 02:28:10;;;;;;;17.43;10.70;;;;;;;;;;4988010;28;20236;-76
2022/09/20 02:30:51;;;;;;;11.83;9.07;;;;;;;;;;4967163;28;20225;-77
2022/09/20 02:33:30;;;;;;;14.10;9.90;;;;;;;;;;4987403;28;20225;-77
2022/09/20 02:36:02;;;;;;;17.30;10.07;;;;;;;;;;4971523;28;20233;-77
2022/09/20 02:38:37;;;;;;;15.60;9.57;;;;;;;;;;4974243;28;20284;-77
2022/09/20 02:41:10;;;;;;;11.87;9.43;;;;;;;;;;4974969;28;20308;-77
2022/09/20 02:43:48;;;;;;;15.33;9.33;;;;;;;;;;4989737;28;20309;-77
2022/09/20 02:46:27;;;;;;;16.47;9.33;;;;;;;;;;4970780;28;20229;-77
2022/09/20 02:49:13;;;;;;;15.63;9.50;;;;;;;;;;4955547;28;20229;-77
2022/09/20 02:51:50;;;;;;;18.33;8.97;;;;;;;;;;4958462;28;20209;-77
2022/09/20 02:54:42;;;;;;;11.77;8.43;;;;;;;;;;4975724;28;20229;-77
2022/09/20 02:57:25;;;;;;;14.57;9.70;;;;;;;;;;4974564;28;20229;-77
2022/09/20 03:00:13;;;;;;;14.33;9.60;;;;;;;;;;4988953;28;20312;-77
2022/09/20 03:02:50;;;;;;;15.83;8.63;;;;;;;;;;4955685;28;20742;-76
2022/09/20 03:05:53;;;;;;;11.53;9.80;;;;;;;;;;4992533;28;20212;-76
2022/09/20 03:08:48;;;;;;;10.07;8.17;;;;;;;;;;4939914;28;20593;-77
2022/09/20 03:11:33;;;;;;;10.87;8.90;;;;;;;;;;4997170;28;20217;-78
2022/09/20 03:14:26;;;;;;;10.60;9.10;;;;;;;;;;4998565;28;20277;-79
2022/09/20 03:17:12;;;;;;;12.00;8.30;;;;;;;;;;4982383;28;20678;-78
2022/09/20 03:20:02;;;;;;;9.90;8.50;;;;;;;;;;4965045;28;20293;-78
2022/09/20 03:22:38;;;;;;;14.33;9.17;;;;;;;;;;4972102;28;20700;-78
2022/09/20 03:25:20;;;;;;;9.97;8.90;;;;;;;;;;4987224;28;20229;-77
2022/09/20 03:27:54;;;;;;;15.03;9.77;;;;;;;;;;4975477;28;20352;-78
2022/09/20 03:30:28;;;;;;;10.60;8.87;;;;;;;;;;4978749;28;20233;-79
2022/09/20 03:33:25;;;;;;;17.77;9.37;;;;;;;;;;4999164;28;20307;-78
2022/09/20 03:36:19;;;;;;;13.47;9.77;;;;;;;;;;4978187;28;20620;-79
2022/09/20 03:39:21;;;;;;;12.30;9.43;;;;;;;;;;4983712;28;20232;-80
2022/09/20 03:42:02;;;;;;;13.90;10.40;;;;;;;;;;4998054;28;20229;-79
2022/09/20 03:44:49;;;;;;;13.40;9.57;;;;;;;;;;5014169;28;20224;-78
2022/09/20 03:47:36;;;;;;;10.90;9.80;;;;;;;;;;4995034;28;20213;-75
2022/09/20 03:50:25;;;;;;;15.03;10.40;;;;;;;;;;4985361;28;20278;-75
2022/09/20 03:53:47;;;;;;;11.97;10.33;;;;;;;;;;4998676;28;20303;-75
2022/09/20 03:56:28;;;;;;;11.43;9.23;;;;;;;;;;4955643;28;20239;-75
2022/09/20 03:59:18;;;;;;;11.37;9.73;;;;;;;;;;4978876;28;20229;-75
2022/09/20 04:02:05;;;;;;;10.13;9.13;;;;;;;;;;4975491;28;20225;-74
2022/09/20 04:04:49;;;;;;;10.53;9.53;;;;;;;;;;5010695;28;20224;-75
2022/09/20 04:07:59;;;;;;;9.50;8.67;;;;;;;;;;4986424;28;20773;-75
2022/09/20 04:10:43;;;;;;;9.13;8.33;;;;;;;;;;4879760;29;20231;-74
2022/09/20 04:13:54;;;;;;;11.83;9.40;;;;;;;;;;4913974;29;20226;-74
2022/09/20 04:16:28;;;;;;;10.17;9.30;;;;;;;;;;4866699;29;20227;-72
2022/09/20 04:18:57;;;;;;;10.87;9.47;;;;;;;;;;4975483;28;20312;-75
2022/09/20 04:21:30;;;;;;;11.73;9.97;;;;;;;;;;5009297;28;20247;-75
2022/09/20 04:24:12;;;;;;;10.57;9.43;;;;;;;;;;4978477;28;20248;-75
2022/09/20 04:26:43;;;;;;;10.77;9.63;;;;;;;;;;4995783;28;20615;-74
2022/09/20 04:29:27;;;;;;;11.17;10.00;;;;;;;;;;4979622;28;20232;-75
2022/09/20 04:32:02;;;;;;;10.97;9.90;;;;;;;;;;4984719;28;20240;-75
2022/09/20 04:37:31;;;;;;;13.13;10.77;;;;;;;;;;4979965;28;20221;-75
2022/09/20 04:40:18;;;;;;;12.37;11.17;;;;;;;;;;4993094;28;20282;-75
2022/09/20 04:42:58;;;;;;;13.07;10.77;;;;;;;;;;5008329;28;20228;-75
2022/09/20 04:45:51;;;;;;;11.77;10.53;;;;;;;;;;4991735;28;20647;-73
2022/09/20 04:48:51;;;;;;;11.90;10.73;;;;;;;;;;5010370;28;20217;-73
2022/09/20 04:51:47;;;;;;;13.07;11.17;;;;;;;;;;4997359;28;20339;-74
2022/09/20 04:54:33;;;;;;;12.97;11.50;;;;;;;;;;5009382;28;20236;-76
2022/09/20 04:57:19;;;;;;;13.93;10.53;;;;;;;;;;4994357;28;20285;-75
2022/09/20 05:00:18;;;;;;;11.77;10.50;;;;;;;;;;5003722;28;20259;-75
2022/09/20 05:03:26;;;;;;;12.33;10.97;;;;;;;;;;4949181;28;20224;-75
2022/09/20 05:06:13;;;;;;;12.63;11.43;;;;;;;;;;4977505;28;20279;-75
2022/09/20 05:09:04;;;;;;;12.13;10.93;;;;;;;;;;4959132;28;20225;-73
2022/09/20 05:11:54;;;;;;;13.57;10.80;;;;;;;;;;5007662;28;20229;-75
2022/09/20 05:14:35;;;;;;;13.03;10.80;;;;;;;;;;4993527;28;20236;-75
2022/09/20 05:17:13;;;;;;;13.60;12.20;;;;;;;;;;5010025;28;20237;-74
2022/09/20 05:19:54;;;;;;;12.80;11.43;;;;;;;;;;5008374;28;20232;-74
2022/09/20 05:22:46;;;;;;;12.73;11.43;;;;;;;;;;4994668;28;20299;-74
2022/09/20 05:25:24;;;;;;;11.57;10.40;;;;;;;;;;4986060;28;20217;-74
2022/09/20 05:28:04;;;;;;;23.30;11.13;;;;;;;;;;5009782;28;20228;-73
2022/09/20 05:30:38;;;;;;;15.47;10.80;;;;;;;;;;4979232;28;20227;-73
2022/09/20 05:33:30;;;;;;;18.80;11.00;;;;;;;;;;4993954;28;20225;-73
2022/09/20 05:36:01;;;;;;;12.73;10.10;;;;;;;;;;5009153;28;20234;-76
2022/09/20 05:38:46;;;;;;;11.53;9.87;;;;;;;;;;4995097;28;20707;-72
2022/09/20 05:41:51;;;;;;;11.67;9.77;;;;;;;;;;4978813;28;20311;-77
2022/09/20 05:44:41;;;;;;;15.73;9.27;;;;;;;;;;5008139;28;20236;-76
2022/09/20 05:47:19;;;;;;;9.03;8.13;;;;;;;;;;4994297;28;20308;-75
2022/09/20 05:50:15;;;;;;;9.90;7.97;;;;;;;;;;5007760;28;20229;-73
2022/09/20 05:52:50;;;;;;;9.13;8.30;;;;;;;;;;4994905;28;20245;-75
2022/09/20 05:55:29;;;;;;;8.73;7.93;;;;;;;;;;5002312;28;20282;-74
2022/09/20 05:58:34;;;;;;;9.90;8.90;;;;;;;;;;4991666;28;20237;-73
2022/09/20 06:01:11;;;;;;;14.83;10.97;;;;;;;;;;4990729;28;20255;-73
2022/09/20 06:03:53;;;;;;;12.73;11.03;;;;;;;;;;4991021;28;20228;-74
2022/09/20 06:06:21;;;;;;;12.83;11.53;;;;;;;;;;4962229;28;20217;-74
2022/09/20 06:08:54;;;;;;;11.40;10.30;;;;;;;;;;4976062;28;20651;-74
2022/09/20 06:11:31;;;;;;;11.07;9.90;;;;;;;;;;5010108;28;20710;-75
2022/09/20 06:14:02;;;;;;;11.03;10.00;;;;;;;;;;4992678;28;20267;-75
2022/09/20 06:16:34;;;;;;;11.20;10.10;;;;;;;;;;5008296;28;20233;-75
2022/09/20 06:19:10;;;;;;;8.60;7.60;;;;;;;;;;5015194;28;20307;-75
2022/09/20 06:21:52;;;;;;;9.50;7.30;;;;;;;;;;4992820;28;20227;-75
2022/09/20 06:24:35;;;;;;;5.50;5.00;;;;;;;;;;4989044;28;20682;-73
2022/09/20 06:27:07;;;;;;;4.97;4.57;;;;;;;;;;4995313;28;20237;-75
2022/09/20 06:29:35;;;;;;;5.47;4.47;;;;;;;;;;4996313;28;20264;-76
2022/09/20 06:32:01;;;;;;;6.20;4.17;;;;;;;;;;4987369;28;20255;-74
2022/09/20 06:34:29;;;;;;;4.63;4.07;;;;;;;;;;4974642;28;20217;-75
2022/09/20 06:42:49;;;;;;;4.67;3.30;;;;;;;;;;4975315;28;20224;-75
2022/09/20 06:45:15;;;;;;;3.77;3.00;;;;;;;;;;5007607;28;20244;-74
2022/09/20 06:47:43;;;;;;;3.57;3.10;;;;;;;;;;4991812;28;20224;-75
2022/09/20 06:50:14;;;;;;;4.33;2.70;;;;;;;;;;5010075;28;20229;-75
2022/09/20 06:52:43;;;;;;;4.67;2.70;;;;;;;;;;4978746;28;20225;-75
2022/09/20 06:55:17;;;;;;;4.47;2.50;;;;;;;;;;4982126;28;20319;-78
2022/09/20 06:57:45;;;;;;;5.67;2.70;;;;;;;;;;4964105;28;20703;-75
2022/09/20 07:00:14;;;;;;;4.60;2.80;;;;;;;;;;4991232;28;20311;-75
2022/09/20 07:02:41;;;;;;;9.83;2.83;;;;;;;;;;4960310;28;20216;-75
2022/09/20 07:05:20;;;;;;;4.37;2.70;;;;;;;;;;4989828;28;20224;-75
2022/09/20 07:07:48;;;;;;;3.90;2.70;;;;;;;;;;4976927;28;20604;-73
2022/09/20 07:10:14;;;;;;;6.33;5.13;;;;;;;;;;4978405;28;20225;-75
2022/09/20 07:12:40;;;;;;;5.17;2.53;;;;;;;;;;4995863;28;20223;-75
2022/09/20 07:15:06;;;;;;;5.37;2.50;;;;;;;;;;4978403;28;20761;-77
2022/09/20 07:17:32;;;;;;;3.07;2.20;;;;;;;;;;4970248;28;20244;-72
2022/09/20 07:20:03;;;;;;;3.67;2.47;;;;;;;;;;4977760;28;20229;-76
2022/09/20 07:22:31;;;;;;;5.67;2.50;;;;;;;;;;4950263;28;20893;-74
2022/09/20 07:25:01;;;;;;;2.60;2.17;;;;;;;;;;4961515;28;20220;-74
2022/09/20 07:27:29;;;;;;;5.60;2.07;;;;;;;;;;4998096;28;20236;-74
2022/09/20 07:29:55;;;;;;;3.57;2.00;;;;;;;;;;4955869;28;20274;-74
2022/09/20 07:32:21;;;;;;;3.43;2.07;;;;;;;;;;4960376;28;20839;-74
2022/09/20 07:34:47;;;;;;;4.57;3.00;;;;;;;;;;4991732;28;20241;-75
2022/09/20 07:37:13;;;;;;;3.37;2.07;;;;;;;;;;5007773;28;20212;-74
2022/09/20 07:39:41;;;;;;;4.07;1.90;;;;;;;;;;4997273;28;20266;-74
2022/09/20 07:42:08;;;;;;;1.73;1.63;;;;;;;;;;4993203;28;20280;-73
2022/09/20 07:44:42;;;;;;;3.17;1.80;;;;;;;;;;4993026;28;20217;-74
2022/09/20 07:47:13;;;;;;;3.80;1.37;;;;;;;;;;4989826;28;20225;-74
2022/09/20 07:49:38;;;;;;;2.53;1.43;;;;;;;;;;4978841;28;20646;-74
2022/09/20 07:52:04;;;;;;;6.50;1.50;;;;;;;;;;4995539;28;20221;-74
2022/09/20 07:54:32;;;;;;;2.27;1.27;;;;;;;;;;4976365;28;20241;-73
2022/09/20 07:57:01;;;;;;;2.20;1.30;;;;;;;;;;4998932;28;20282;-77
2022/09/20 07:59:29;;;;;;;3.20;1.50;;;;;;;;;;4978578;28;20303;-75
2022/09/20 08:01:59;;;;;;;2.80;1.40;;;;;;;;;;5010965;28;20644;-75
2022/09/20 08:04:29;;;;;;;3.97;1.20;;;;;;;;;;4997483;28;20714;-76
2022/09/20 08:06:57;;;;;;;3.03;1.03;;;;;;;;;;4996087;28;20229;-75
2022/09/20 08:09:23;;;;;;;2.17;1.30;;;;;;;;;;4962832;28;21007;-75
2022/09/20 08:11:49;;;;;;;2.77;1.33;;;;;;;;;;4980426;28;20216;-75
2022/09/20 08:14:15;;;;;;;3.20;1.13;;;;;;;;;;5006660;28;20228;-74
2022/09/20 08:16:46;;;;;;;5.87;1.47;;;;;;;;;;4995387;28;20227;-75
2022/09/20 08:19:19;;;;;;;4.70;1.10;;;;;;;;;;4962840;28;20219;-76
2022/09/20 08:21:48;;;;;;;3.40;1.00;;;;;;;;;;4977680;28;20290;-76
2022/09/20 08:24:18;;;;;;;3.90;1.10;;;;;;;;;;4972739;28;20353;-75
2022/09/20 08:26:47;;;;;;;4.57;1.30;;;;;;;;;;4976863;28;20320;-75
2022/09/20 08:29:15;;;;;;;3.77;1.50;;;;;;;;;;4961130;28;20221;-74
2022/09/20 08:31:46;;;;;;;5.40;4.13;;;;;;;;;;4960816;28;20268;-73
2022/09/20 08:34:11;;;;;;;3.03;1.17;;;;;;;;;;4973867;28;20338;-75
2022/09/20 08:36:45;;;;;;;5.73;1.60;;;;;;;;;;4995916;28;20228;-76
2022/09/20 08:39:13;;;;;;;4.13;1.10;;;;;;;;;;4978341;28;20216;-75
2022/09/20 08:41:47;;;;;;;3.90;1.50;;;;;;;;;;5010898;28;20225;-75
2022/09/20 08:44:31;;;;;;;5.40;1.40;;;;;;;;;;4974352;28;20221;-76
2022/09/20 08:47:21;;;;;;;2.87;1.30;;;;;;;;;;4995583;28;20694;-76
2022/09/20 08:49:53;;;;;;;9.33;1.40;;;;;;;;;;5008404;28;20220;-75
2022/09/20 08:52:22;;;;;;;4.07;1.40;;;;;;;;;;5009580;28;20224;-74
2022/09/20 08:54:47;;;;;;;8.40;1.40;;;;;;;;;;4963367;28;20237;-75
2022/09/20 08:57:16;;;;;;;4.37;1.83;;;;;;;;;;4980676;28;20278;-74
2022/09/20 08:59:44;;;;;;;4.40;1.50;;;;;;;;;;4979060;28;20232;-75
2022/09/20 09:02:15;;;;;;;5.20;1.50;;;;;;;;;;4991286;28;20224;-76
2022/09/20 09:04:44;;;;;;;4.87;1.30;;;;;;;;;;4993112;28;20771;-74
2022/09/20 09:07:13;;;;;;;3.23;1.30;;;;;;;;;;4961193;28;20213;-77
2022/09/20 09:09:43;;;;;;;3.38;1.20;;;;;;;;;;4976521;28;20722;-76
2022/09/20 09:12:28;;;;;;;4.30;1.50;;;;;;;;;;4978801;28;20275;-74
2022/09/20 09:14:58;;;;;;;4.40;1.20;;;;;;;;;;4978253;28;20236;-74
2022/09/20 09:17:27;;;;;;;8.23;1.63;;;;;;;;;;4959547;28;20221;-75
2022/09/20 09:19:57;;;;;;;4.30;1.33;;;;;;;;;;4993695;28;20256;-76
2022/09/20 09:22:40;;;;;;;4.23;1.30;;;;;;;;;;5010115;28;20228;-76
2022/09/20 09:25:31;;;;;;;5.33;1.57;;;;;;;;;;4992302;28;20229;-76
2022/09/20 09:28:04;;;;;;;3.50;1.47;;;;;;;;;;4993123;28;20232;-75
2022/09/20 09:30:45;;;;;;;3.77;1.30;;;;;;;;;;4977790;28;20746;-77
2022/09/20 09:33:27;;;;;;;4.33;1.37;;;;;;;;;;4993213;28;20238;-73
2022/09/20 09:36:05;;;;;;;4.57;1.70;;;;;;;;;;4978292;28;20229;-74
2022/09/20 09:38:35;;;;;;;6.00;1.63;;;;;;;;;;4990582;28;20232;-76
2022/09/20 09:41:08;;;;;;;4.97;1.37;;;;;;;;;;5007204;28;20280;-73
2022/09/20 09:43:39;;;;;;;3.93;1.20;;;;;;;;;;5008552;28;20216;-75
2022/09/20 09:46:29;;;;;;;5.70;1.10;;;;;;;;;;4961927;28;20225;-76
2022/09/20 09:49:26;;;;;;;4.93;1.23;;;;;;;;;;4975906;28;20240;-74
2022/09/20 09:52:04;;;;;;;4.63;1.30;;;;;;;;;;4962744;28;20233;-74
2022/09/20 09:54:49;;;;;;;3.10;0.98;;;;;;;;;;5011691;28;20247;-75
2022/09/20 09:57:37;;;;;;;3.10;0.90;;;;;;;;;;4995688;28;20220;-75
2022/09/20 10:00:22;;;;;;;2.03;1.00;;;;;;;;;;4974929;28;20252;-74
2022/09/20 10:03:07;;;;;;;7.22;1.35;;;;;;;;;;4959084;28;20235;-74
2022/09/20 10:05:45;;;;;;;8.15;1.38;;;;;;;;;;4994906;28;20605;-73
2022/09/20 10:08:45;;;;;;;3.67;1.80;;;;;;;;;;5008247;28;20235;-74
2022/09/20 10:11:32;;;;;;;3.20;1.53;;;;;;;;;;4997703;28;20233;-74
2022/09/20 10:14:06;;;;;;;3.40;1.87;;;;;;;;;;4991473;28;20592;-74
2022/09/20 10:16:37;;;;;;;7.88;1.48;;;;;;;;;;5009220;28;20418;-74
2022/09/20 10:19:15;;;;;;;4.60;1.63;;;;;;;;;;4980447;28;20236;-74
2022/09/20 10:21:52;;;;;;;5.60;1.90;;;;;;;;;;4998256;28;20225;-74
2022/09/20 10:24:29;;;;;;;10.95;1.20;;;;;;;;;;4985195;28;20213;-73
2022/09/20 10:27:04;;;;;;;2.85;1.23;;;;;;;;;;5004674;28;20319;-74
2022/09/20 10:29:45;;;;;;;3.22;1.40;;;;;;;;;;5006922;28;20686;-74
2022/09/20 10:32:36;;;;;;;5.22;1.27;;;;;;;;;;4987156;28;20220;-73
2022/09/20 10:35:24;;;;;;;5.45;1.17;;;;;;;;;;5002566;28;20233;-73
2022/09/20 10:38:14;;;;;;;3.47;1.10;;;;;;;;;;4988045;28;20220;-74
2022/09/20 10:44:18;;;;;;;5.00;1.27;;;;;;;;;;4906918;29;20222;-75
2022/09/20 10:46:55;;;;;;;3.67;1.10;;;;;;;;;;4977218;28;20300;-75
2022/09/20 10:50:03;;;;;;;3.72;1.30;;;;;;;;;;5003641;28;20274;-75
2022/09/20 10:52:50;;;;;;;4.20;1.20;;;;;;;;;;5001160;28;20232;-74
2022/09/20 10:55:30;;;;;;;4.28;1.17;;;;;;;;;;4991767;28;20319;-74
2022/09/20 10:58:18;;;;;;;6.72;1.17;;;;;;;;;;4977463;28;20312;-75
2022/09/20 11:01:05;;;;;;;4.03;1.30;;;;;;;;;;4959774;28;20286;-74
2022/09/20 11:03:49;;;;;;;2.57;0.90;;;;;;;;;;5007199;28;20643;-74
2022/09/20 11:06:23;;;;;;;2.77;1.00;;;;;;;;;;4989730;28;20599;-74
2022/09/20 11:08:50;;;;;;;4.15;1.05;;;;;;;;;;4974217;28;20266;-74
2022/09/20 11:11:31;;;;;;;2.78;1.33;;;;;;;;;;4974265;28;20278;-73
2022/09/20 11:14:09;;;;;;;4.80;1.60;;;;;;;;;;5010880;28;20730;-73
2022/09/20 11:16:44;;;;;;;4.10;1.80;;;;;;;;;;4978453;28;20306;-76
2022/09/20 11:19:30;;;;;;;3.63;1.40;;;;;;;;;;4979375;28;20304;-74
2022/09/20 11:22:17;;;;;;;4.60;1.90;;;;;;;;;;4979576;28;20247;-72
2022/09/20 11:24:49;;;;;;;4.72;1.30;;;;;;;;;;4985410;28;20694;-74
2022/09/20 11:27:25;;;;;;;6.85;1.33;;;;;;;;;;5010369;28;20585;-73
2022/09/20 11:29:54;;;;;;;3.45;1.27;;;;;;;;;;5008772;28;20278;-75
2022/09/20 11:32:27;;;;;;;3.67;1.23;;;;;;;;;;5005500;28;20225;-76
2022/09/20 11:35:01;;;;;;;4.70;1.38;;;;;;;;;;4994898;28;20825;-74
2022/09/20 11:37:29;;;;;;;6.18;1.40;;;;;;;;;;4995862;28;20798;-76
2022/09/20 11:39:55;;;;;;;5.85;1.48;;;;;;;;;;4987299;28;20235;-77
2022/09/20 11:42:28;;;;;;;2.08;1.00;;;;;;;;;;4986277;28;20311;-73
2022/09/20 11:44:54;;;;;;;3.85;1.20;;;;;;;;;;4978489;28;20768;-76
2022/09/20 11:47:31;;;;;;;3.45;1.40;;;;;;;;;;4978586;28;20229;-75
2022/09/20 11:50:33;;;;;;;2.92;1.30;;;;;;;;;;4941174;28;20267;-75
2022/09/20 11:53:10;;;;;;;3.10;1.10;;;;;;;;;;4965095;28;20232;-73
2022/09/20 11:55:57;;;;;;;3.60;1.30;;;;;;;;;;4979009;28;20232;-76
2022/09/20 11:58:24;;;;;;;5.65;1.30;;;;;;;;;;5011152;28;20263;-75
2022/09/20 12:00:53;;;;;;;4.88;1.33;;;;;;;;;;4993714;28;20304;-75
2022/09/20 12:03:32;;;;;;;3.00;1.45;;;;;;;;;;4995059;28;20604;-73
2022/09/20 12:06:04;;;;;;;3.50;1.25;;;;;;;;;;4948965;28;20217;-74
2022/09/20 12:08:39;;;;;;;4.90;1.20;;;;;;;;;;4979919;28;20803;-74
2022/09/20 12:11:10;;;;;;;4.10;1.40;;;;;;;;;;4975900;28;20248;-75
2022/09/20 12:13:38;;;;;;;3.47;1.55;;;;;;;;;;4992578;28;20608;-76
2022/09/20 12:16:12;;;;;;;3.80;1.17;;;;;;;;;;4977595;28;20614;-73
2022/09/20 12:18:53;;;;;;;4.18;1.10;;;;;;;;;;4988792;28;20217;-75
2022/09/20 12:21:19;;;;;;;3.55;1.15;;;;;;;;;;4994435;28;20663;-76
2022/09/20 12:23:56;;;;;;;2.55;0.80;;;;;;;;;;4979069;28;20221;-75
2022/09/20 12:26:27;;;;;;;2.58;0.98;;;;;;;;;;4990588;28;20295;-74
2022/09/20 12:28:56;;;;;;;3.42;1.23;;;;;;;;;;5011438;28;20264;-75
2022/09/20 12:34:09;;;;;;;2.75;1.10;;;;;;;;;;5010997;28;20587;-76
2022/09/20 12:36:43;;;;;;;3.65;1.20;;;;;;;;;;5009581;28;20308;-75
2022/09/20 12:39:11;;;;;;;5.05;1.20;;;;;;;;;;4994658;28;20231;-75
2022/09/20 12:41:45;;;;;;;5.25;1.23;;;;;;;;;;5010115;28;20225;-75
2022/09/20 12:44:44;;;;;;;6.45;1.38;;;;;;;;;;5008859;28;20229;-75
2022/09/20 12:47:09;;;;;;;3.42;1.17;;;;;;;;;;4995140;28;20829;-75
2022/09/20 12:52:57;;;;;;;2.03;0.90;;;;;;;;;;5010306;28;20227;-76
2022/09/20 12:55:31;;;;;;;2.33;1.30;;;;;;;;;;4980494;28;20236;-75
2022/09/20 12:58:12;;;;;;;3.42;1.13;;;;;;;;;;4995046;28;20316;-75
2022/09/20 13:00:56;;;;;;;2.72;1.02;;;;;;;;;;4995452;28;20286;-75
2022/09/20 13:03:25;;;;;;;4.65;1.13;;;;;;;;;;4983178;28;20228;-75
2022/09/20 13:06:13;;;;;;;3.22;1.02;;;;;;;;;;4998361;28;20302;-74
2022/09/20 13:09:00;;;;;;;1.77;1.00;;;;;;;;;;4985851;28;20224;-75
2022/09/20 13:11:26;;;;;;;2.50;1.05;;;;;;;;;;5007452;28;20275;-76
2022/09/20 13:14:05;;;;;;;5.35;1.10;;;;;;;;;;5010339;28;20706;-76
2022/09/20 13:16:46;;;;;;;1.92;0.82;;;;;;;;;;4979320;28;20232;-75
2022/09/20 13:19:29;;;;;;;2.80;0.73;;;;;;;;;;4998568;28;20220;-76
2022/09/20 13:22:01;;;;;;;2.97;0.85;;;;;;;;;;4979213;28;20233;-76
2022/09/20 13:24:29;;;;;;;2.85;1.00;;;;;;;;;;4995687;28;20283;-74
2022/09/20 13:27:01;;;;;;;3.22;1.05;;;;;;;;;;4965061;28;20225;-75
2022/09/20 13:29:43;;;;;;;4.25;1.10;;;;;;;;;;4980870;28;20328;-75
2022/09/20 13:32:24;;;;;;;3.08;1.05;;;;;;;;;;4977626;28;20216;-74
2022/09/20 13:35:11;;;;;;;5.03;1.05;;;;;;;;;;4974634;28;20605;-77
2022/09/20 13:38:08;;;;;;;2.10;1.00;;;;;;;;;;5009923;28;20220;-73
2022/09/20 13:40:35;;;;;;;3.25;1.00;;;;;;;;;;5009296;28;20276;-75
2022/09/20 13:43:05;;;;;;;2.77;1.00;;;;;;;;;;4963028;28;20228;-76
2022/09/20 13:45:34;;;;;;;3.85;1.00;;;;;;;;;;4962239;28;20220;-75
2022/09/20 13:48:00;;;;;;;4.18;1.00;;;;;;;;;;4992512;28;20355;-74
2022/09/20 13:50:25;;;;;;;2.45;1.10;;;;;;;;;;5010377;28;20247;-76
2022/09/20 13:53:02;;;;;;;2.92;1.00;;;;;;;;;;4994156;28;20707;-76
2022/09/20 13:55:29;;;;;;;6.00;1.27;;;;;;;;;;4977361;28;21024;-74
2022/09/20 13:57:56;;;;;;;2.27;0.90;;;;;;;;;;5009539;28;20235;-77
2022/09/20 14:00:24;;;;;;;2.22;0.93;;;;;;;;;;4979649;28;20233;-76
2022/09/20 14:02:52;;;;;;;5.07;1.20;;;;;;;;;;4962635;28;20304;-74
2022/09/20 14:05:18;;;;;;;2.63;1.10;;;;;;;;;;4961135;28;20244;-75
2022/09/20 14:07:44;;;;;;;2.90;0.83;;;;;;;;;;4977303;28;20666;-76
2022/09/20 14:10:30;;;;;;;3.83;0.90;;;;;;;;;;4980335;28;20235;-76
2022/09/20 14:12:57;;;;;;;4.18;1.08;;;;;;;;;;4995517;28;20228;-76
2022/09/20 14:15:23;;;;;;;4.43;0.95;;;;;;;;;;4975061;28;20714;-74
2022/09/20 14:17:52;;;;;;;2.15;0.80;;;;;;;;;;4994232;28;20229;-76
2022/09/20 14:20:19;;;;;;;1.73;1.02;;;;;;;;;;4994604;28;20232;-76
2022/09/20 14:22:45;;;;;;;4.07;1.05;;;;;;;;;;4979458;28;20230;-73
2022/09/20 14:25:13;;;;;;;2.58;0.93;;;;;;;;;;4978560;28;20705;-71
2022/09/20 14:27:38;;;;;;;3.83;1.02;;;;;;;;;;4994413;28;20250;-72
2022/09/20 14:30:05;;;;;;;4.13;1.13;;;;;;;;;;4976126;28;20757;-74
2022/09/20 14:32:55;;;;;;;2.88;0.88;;;;;;;;;;4955442;28;20219;-74
2022/09/20 14:35:21;;;;;;;1.77;0.75;;;;;;;;;;4991429;28;20233;-76
2022/09/20 14:37:54;;;;;;;2.35;0.75;;;;;;;;;;4961086;28;20346;-74
2022/09/20 14:40:25;;;;;;;3.03;1.00;;;;;;;;;;4974590;28;20270;-74
2022/09/20 14:42:54;;;;;;;2.80;1.00;;;;;;;;;;4991562;28;20608;-74
2022/09/20 14:45:49;;;;;;;4.72;1.80;;;;;;;;;;4992933;28;20220;-76
2022/09/20 14:48:14;;;;;;;2.57;1.10;;;;;;;;;;4974606;28;20224;-75
2022/09/20 14:50:44;;;;;;;3.45;1.00;;;;;;;;;;4976950;28;20307;-75
2022/09/20 14:53:09;;;;;;;3.08;0.80;;;;;;;;;;4960189;28;20637;-75
2022/09/20 14:55:38;;;;;;;3.10;1.08;;;;;;;;;;4978921;28;20228;-77
2022/09/20 14:58:08;;;;;;;3.63;0.85;;;;;;;;;;4980786;28;20236;-74
2022/09/20 15:00:47;;;;;;;3.17;1.02;;;;;;;;;;4965961;28;20228;-75
2022/09/20 15:03:13;;;;;;;2.10;0.88;;;;;;;;;;4983677;28;20263;-77
2022/09/20 15:05:39;;;;;;;2.87;0.90;;;;;;;;;;4983704;28;20224;-74
2022/09/20 15:08:08;;;;;;;3.50;1.00;;;;;;;;;;4997105;28;20225;-75
2022/09/20 15:10:34;;;;;;;4.15;1.20;;;;;;;;;;4978610;28;20324;-75
2022/09/20 15:13:02;;;;;;;4.03;1.20;;;;;;;;;;4998999;28;20228;-74
2022/09/20 15:15:28;;;;;;;6.60;1.20;;;;;;;;;;4995107;28;20236;-74
2022/09/20 15:17:53;;;;;;;4.07;1.23;;;;;;;;;;4979319;28;20283;-74
2022/09/20 15:20:25;;;;;;;3.42;1.20;;;;;;;;;;4991759;28;20217;-76
2022/09/20 15:22:56;;;;;;;3.30;0.95;;;;;;;;;;4993034;28;20716;-75
2022/09/20 15:25:23;;;;;;;2.45;1.30;;;;;;;;;;5004484;28;20231;-75
2022/09/20 15:27:51;;;;;;;2.50;1.15;;;;;;;;;;4978380;28;20300;-74
2022/09/20 15:30:18;;;;;;;3.55;1.20;;;;;;;;;;4980469;28;20298;-74
2022/09/20 15:32:46;;;;;;;2.40;1.40;;;;;;;;;;5010937;28;20232;-74
2022/09/20 15:35:16;;;;;;;3.42;1.00;;;;;;;;;;4980941;28;20232;-76
2022/09/20 15:37:41;;;;;;;2.67;1.10;;;;;;;;;;4979625;28;20232;-73
2022/09/20 15:40:07;;;;;;;3.53;1.03;;;;;;;;;;4981389;28;20232;-74
2022/09/20 15:42:36;;;;;;;1.67;0.90;;;;;;;;;;5011669;28;20365;-73
2022/09/20 15:45:09;;;;;;;3.17;1.20;;;;;;;;;;4979255;28;20601;-73
2022/09/20 15:47:38;;;;;;;2.80;1.40;;;;;;;;;;4954272;28;20221;-73
2022/09/20 15:50:06;;;;;;;1.90;0.97;;;;;;;;;;4966433;28;20304;-75
2022/09/20 15:52:33;;;;;;;2.17;1.03;;;;;;;;;;4996303;28;20311;-74
2022/09/20 15:55:02;;;;;;;3.93;1.30;;;;;;;;;;4997484;28;20263;-74